Terminal Aerodrome Forecast
Issued by NWS Mt. Holly, NJ

Home | Current Version | Previous Version | Text Only | Print | Product List | Glossary On
Versions: 1 2 3 4 5 6 7 8 9 10 11 12 13 14 15 16 17 18 19 20 21 22 23
539
FTUS41 KPHI 300543
TAFRDG
TAF
KRDG 300543Z 3006/3106 23004KT 3SM SHRA BR OVC035
     FM300800 VRB03KT 3SM BR SCT035 BKN080
      TEMPO 3008/3012 1SM BR VV002
     FM301400 17004KT P6SM BKN060
      TEMPO 3015/3019 SHRA OVC035
     FM301900 15004KT P6SM SHRA OVC035
     FM310000 14004KT 4SM SHRA BR OVC025
     FM310300 12004KT 3SM SHRA BR OVC010=

USA.gov is the U.S. government's official web portal to all federal, state and local government web resources and services.